KBCK

Black River Falls Area Airport

Black River Falls, Wisconsin, USA
METAR KBCK 230555Z AUTO 32004KT 10SM CLR 05/M04 A3019 RMK AO2 T00511045 10115 20051 401761073
Observed Flight Rules
Oct-23 @ 05:55 UTC (14 minutes ago) Visual Flight Rules
Wind Visibility Clouds
320° at 4 knots 10 miles
  • Clear skies
Temperatures Readings
Current 5°C / 41°F
Dewpoint -5°C / 23°F
Humidity 49%
Altimeter 30.19" Hg
Pressure 1022 hPa
Elevation 255
METAR KBCK 230555Z AUTO 32004KT 10SM CLR 05/M04 A3019 RMK AO2 T00511045 10115 20051 401761073
Observed Flight Rules
Oct-23 @ 05:55 UTC
(14 minutes ago)
VFR
Wind Visibility
320° at 4 knots 10 miles
Clouds
  • Clear skies
Temperature Dewpoint
5°C / 41°F -5°C / 23°F
Humidity Altimeter Pressure
49% 30.19" Hg 1022 hPa